createdAt,value
2023-04-21T00:00:35.449Z,6.90
2023-04-21T00:02:39.608Z,6.88
2023-04-21T00:04:45.484Z,6.84
2023-04-21T00:06:48.249Z,6.79
2023-04-21T00:08:51.205Z,6.86
2023-04-21T00:10:55.331Z,6.76
2023-04-21T00:12:57.876Z,6.68
2023-04-21T00:15:00.621Z,6.64
2023-04-21T00:17:03.179Z,6.66
2023-04-21T00:19:07.040Z,6.59
2023-04-21T00:21:09.610Z,6.58
2023-04-21T00:23:12.266Z,6.55
2023-04-21T00:25:15.483Z,6.50
2023-04-21T00:27:19.990Z,6.52
2023-04-21T00:29:22.529Z,6.52
2023-04-21T00:31:25.254Z,6.50
2023-04-21T00:33:27.917Z,6.52
2023-04-21T00:35:30.831Z,6.52
2023-04-21T00:37:33.414Z,6.53
2023-04-21T00:39:35.931Z,6.54
2023-04-21T00:41:39.869Z,6.55
2023-04-21T00:44:05.599Z,6.52
2023-04-21T00:46:08.152Z,6.50
2023-04-21T00:48:12.043Z,6.49
2023-04-21T00:50:14.617Z,6.48
2023-04-21T00:52:18.874Z,6.48
2023-04-21T00:54:22.084Z,6.48
2023-04-21T00:56:25.410Z,6.47
2023-04-21T00:58:28.138Z,6.46
2023-04-21T01:00:32.107Z,6.46
2023-04-21T01:02:37.277Z,6.44
2023-04-21T01:04:40.252Z,6.42
2023-04-21T01:06:43.160Z,6.39
2023-04-21T01:08:47.348Z,6.37
2023-04-21T01:10:49.882Z,6.35
2023-04-21T01:12:52.455Z,6.33
2023-04-21T01:14:55.033Z,6.32
2023-04-21T01:16:59.349Z,6.29
2023-04-21T01:19:04.496Z,6.33
2023-04-21T01:21:07.503Z,6.34
2023-04-21T01:23:11.451Z,6.28
2023-04-21T01:25:14.064Z,6.23
2023-04-21T01:27:19.132Z,6.23
2023-04-21T01:29:21.692Z,6.20
2023-04-21T01:31:24.276Z,6.21
2023-04-21T01:33:26.987Z,6.18
2023-04-21T01:35:29.595Z,6.13
2023-04-21T01:37:33.743Z,6.14
2023-04-21T01:39:39.997Z,6.14
2023-04-21T01:41:42.546Z,6.09
2023-04-21T01:43:45.151Z,6.11
2023-04-21T01:45:49.209Z,6.09
2023-04-21T01:47:51.792Z,6.08
2023-04-21T01:49:54.606Z,6.06
2023-04-21T01:51:57.133Z,6.00
2023-04-21T01:53:59.660Z,5.98
2023-04-21T01:56:03.628Z,5.98
2023-04-21T01:58:06.221Z,5.98
2023-04-21T02:00:10.220Z,5.96
2023-04-21T02:02:13.012Z,5.93
2023-04-21T02:04:15.675Z,5.95
2023-04-21T02:06:18.735Z,5.89
2023-04-21T02:08:21.272Z,5.88
2023-04-21T02:10:24.030Z,5.86
2023-04-21T02:12:27.897Z,5.97
2023-04-21T02:14:30.478Z,5.87
2023-04-21T02:16:33.062Z,5.73
2023-04-21T02:18:39.849Z,5.68
2023-04-21T02:20:42.417Z,5.70
2023-04-21T02:22:45.163Z,5.60
2023-04-21T02:24:47.784Z,5.59
2023-04-21T02:26:50.370Z,5.57
2023-04-21T02:28:54.295Z,5.46
2023-04-21T02:30:56.868Z,5.41
2023-04-21T02:32:59.468Z,5.39
2023-04-21T02:35:02.076Z,5.38
2023-04-21T02:37:04.869Z,5.38
2023-04-21T02:39:07.573Z,5.35
2023-04-21T02:41:10.375Z,5.35
2023-04-21T02:43:14.610Z,5.35
2023-04-21T02:45:18.715Z,5.36
2023-04-21T02:47:21.382Z,5.38
2023-04-21T02:49:23.977Z,5.39
2023-04-21T02:51:26.818Z,5.31
2023-04-21T02:53:29.381Z,5.24
2023-04-21T02:55:32.132Z,5.26
2023-04-21T02:57:34.732Z,5.26
2023-04-21T02:59:37.300Z,5.28
2023-04-21T03:01:41.166Z,5.36
2023-04-21T03:03:43.827Z,5.32
2023-04-21T03:05:46.449Z,5.29
2023-04-21T03:07:49.040Z,5.28
2023-04-21T03:09:51.618Z,5.23
2023-04-21T03:11:54.156Z,5.34
2023-04-21T03:13:56.690Z,5.31
2023-04-21T03:15:59.289Z,5.33
2023-04-21T03:18:03.200Z,5.31
2023-04-21T03:20:08.132Z,5.43
2023-04-21T03:22:10.684Z,5.28
2023-04-21T03:24:13.397Z,5.17
2023-04-21T03:26:18.684Z,5.14
2023-04-21T03:28:21.228Z,5.09
2023-04-21T03:30:25.663Z,5.04
2023-04-21T03:32:28.350Z,5.01
2023-04-21T03:34:32.318Z,5.02
2023-04-21T03:36:37.190Z,4.97
2023-04-21T03:38:39.702Z,4.98
2023-04-21T03:40:42.291Z,4.91
2023-04-21T03:42:45.053Z,4.93
2023-04-21T03:44:47.571Z,5.07
2023-04-21T03:46:50.166Z,5.15
2023-04-21T03:48:52.723Z,4.97
2023-04-21T03:50:56.755Z,4.92
2023-04-21T03:52:59.313Z,4.90
2023-04-21T03:55:01.823Z,4.90
2023-04-21T03:57:04.361Z,4.89
2023-04-21T03:59:07.119Z,4.85
2023-04-21T04:01:09.630Z,4.87
2023-04-21T04:03:12.349Z,4.84
2023-04-21T04:05:14.992Z,4.83
2023-04-21T04:07:19.031Z,4.83
2023-04-21T04:09:21.711Z,4.83
2023-04-21T04:11:24.357Z,4.83
2023-04-21T04:13:27.613Z,4.86
2023-04-21T04:15:30.221Z,4.85
2023-04-21T04:17:32.820Z,4.89
2023-04-21T04:19:35.347Z,4.92
2023-04-21T04:21:38.160Z,4.96
2023-04-21T04:23:42.569Z,4.97
2023-04-21T04:25:45.456Z,4.99
2023-04-21T04:27:49.419Z,5.03
2023-04-21T04:29:51.968Z,5.04
2023-04-21T04:31:54.716Z,5.02
2023-04-21T04:33:57.339Z,5.03
2023-04-21T04:35:59.889Z,5.03
2023-04-21T04:38:02.409Z,5.03
2023-04-21T04:40:09.992Z,5.01
2023-04-21T04:42:12.601Z,5.00
2023-04-21T04:44:16.226Z,4.96
2023-04-21T04:46:20.556Z,4.96
2023-04-21T04:48:24.363Z,4.98
2023-04-21T04:50:27.053Z,5.01
2023-04-21T04:52:29.595Z,5.07
2023-04-21T04:54:32.132Z,5.32
2023-04-21T04:56:36.586Z,5.05
2023-04-21T04:58:39.202Z,4.98
2023-04-21T05:00:41.796Z,4.97
2023-04-21T05:02:44.610Z,4.99
2023-04-21T05:04:47.450Z,5.00
2023-04-21T05:06:50.119Z,5.02
2023-04-21T05:08:52.684Z,4.98
2023-04-21T05:10:55.215Z,5.00
2023-04-21T05:12:59.052Z,4.99
2023-04-21T05:15:01.585Z,5.00
2023-04-21T05:17:04.276Z,5.01
2023-04-21T05:19:07.041Z,5.08
2023-04-21T05:21:09.579Z,5.01
2023-04-21T05:23:12.119Z,4.98
2023-04-21T05:25:15.813Z,4.97
2023-04-21T05:27:18.446Z,4.98
2023-04-21T05:29:22.333Z,5.01
2023-04-21T05:31:25.304Z,5.02
2023-04-21T05:33:27.851Z,5.02
2023-04-21T05:35:31.481Z,5.02
2023-04-21T05:37:34.081Z,5.04
2023-04-21T05:39:36.599Z,5.05
2023-04-21T05:41:39.136Z,5.08
2023-04-21T05:43:41.657Z,5.07
2023-04-21T05:45:45.532Z,5.08
2023-04-21T05:47:48.094Z,5.09
2023-04-21T05:49:53.644Z,5.05
2023-04-21T05:51:56.284Z,5.06
2023-04-21T05:53:58.907Z,5.12
2023-04-21T05:56:01.446Z,5.13
2023-04-21T05:58:04.202Z,5.13
2023-04-21T06:00:08.538Z,5.46
2023-04-21T06:02:12.671Z,5.59
2023-04-21T06:04:15.864Z,5.35
2023-04-21T06:06:18.765Z,5.28
2023-04-21T06:08:21.335Z,5.27
2023-04-21T06:10:23.895Z,5.24
2023-04-21T06:12:26.447Z,5.24
2023-04-21T06:14:29.153Z,5.26
2023-04-21T06:16:34.124Z,5.28
2023-04-21T06:18:38.083Z,5.29
2023-04-21T06:20:41.446Z,5.30
2023-04-21T06:22:43.976Z,5.33
2023-04-21T06:24:46.499Z,5.33
2023-04-21T06:26:49.036Z,5.32
2023-04-21T06:28:51.746Z,5.35
2023-04-21T06:30:54.256Z,5.38
2023-04-21T06:32:56.814Z,5.36
2023-04-21T06:35:00.699Z,5.38
2023-04-21T06:37:03.319Z,5.41
2023-04-21T06:39:05.841Z,5.41
2023-04-21T06:41:08.360Z,5.41
2023-04-21T06:43:10.928Z,5.41
2023-04-21T06:45:13.523Z,5.43
2023-04-21T06:47:16.712Z,5.36
2023-04-21T06:49:19.674Z,5.46
2023-04-21T06:51:23.817Z,5.44
2023-04-21T06:53:26.458Z,5.51
2023-04-21T06:55:29.102Z,5.36
2023-04-21T06:57:31.644Z,5.29
2023-04-21T06:59:34.887Z,5.41
2023-04-21T07:01:37.445Z,5.35
2023-04-21T07:05:42.794Z,5.31
2023-04-21T07:07:46.688Z,5.40
2023-04-21T07:09:49.304Z,5.40
2023-04-21T07:11:51.853Z,5.31
2023-04-21T07:13:54.366Z,5.49
2023-04-21T07:15:57.257Z,5.35
2023-04-21T07:17:59.889Z,5.31
2023-04-21T07:20:02.546Z,5.30
2023-04-21T07:22:05.089Z,5.34
2023-04-21T07:24:09.823Z,5.51
2023-04-21T07:26:12.408Z,5.62
2023-04-21T07:28:16.076Z,5.63
2023-04-21T07:30:18.644Z,5.59
2023-04-21T07:32:21.212Z,5.73
2023-04-21T07:34:23.868Z,5.67
2023-04-21T07:36:28.906Z,5.55
2023-04-21T07:38:34.688Z,5.55
2023-04-21T07:40:38.729Z,5.56
2023-04-21T07:42:41.332Z,5.52
2023-04-21T07:44:45.620Z,5.55
2023-04-21T07:46:48.207Z,5.59
2023-04-21T07:48:50.935Z,5.61
2023-04-21T07:50:53.533Z,5.60
2023-04-21T07:52:56.091Z,5.64
2023-04-21T07:54:58.620Z,5.67
2023-04-21T07:57:02.688Z,5.71
2023-04-21T07:59:05.221Z,5.77
2023-04-21T08:01:07.885Z,5.77
2023-04-21T08:03:10.643Z,5.83
2023-04-21T08:05:13.410Z,5.87
2023-04-21T08:07:18.983Z,5.89
2023-04-21T08:09:21.919Z,5.97
2023-04-21T08:11:24.680Z,6.10
2023-04-21T08:13:28.643Z,6.10
2023-04-21T08:15:31.208Z,6.14
2023-04-21T08:17:33.958Z,6.13
2023-04-21T08:19:36.650Z,6.34
2023-04-21T08:21:41.070Z,6.38
2023-04-21T08:23:43.595Z,6.47
2023-04-21T08:25:46.168Z,6.40
2023-04-21T08:27:48.790Z,6.36
2023-04-21T08:29:52.730Z,6.38
2023-04-21T08:31:55.417Z,6.40
2023-04-21T08:34:01.858Z,6.44
2023-04-21T08:36:12.180Z,6.48
2023-04-21T08:38:20.903Z,6.51
2023-04-21T08:40:33.140Z,6.54
2023-04-21T08:42:36.883Z,6.58
2023-04-21T08:44:41.475Z,6.65
2023-04-21T08:46:46.548Z,6.74
2023-04-21T08:48:49.166Z,6.86
2023-04-21T08:50:52.226Z,6.85
2023-04-21T08:52:55.534Z,6.85
2023-04-21T08:54:58.439Z,6.89
2023-04-21T08:57:14.100Z,6.95
2023-04-21T08:59:18.387Z,7.04
2023-04-21T09:01:21.457Z,7.05
2023-04-21T09:03:26.731Z,7.14
2023-04-21T09:05:31.632Z,7.14
2023-04-21T09:07:36.231Z,7.32
2023-04-21T09:09:54.702Z,7.29
2023-04-21T09:11:58.358Z,7.30
2023-04-21T09:14:01.112Z,7.32
2023-04-21T09:16:08.229Z,7.34
2023-04-21T09:18:15.563Z,7.48
2023-04-21T09:20:21.470Z,7.46
2023-04-21T09:22:29.366Z,7.62
2023-04-21T09:24:35.097Z,7.61
2023-04-21T09:26:37.757Z,7.64
2023-04-21T09:28:43.809Z,7.65
2023-04-21T09:30:46.530Z,7.75
2023-04-21T09:32:49.082Z,7.76
2023-04-21T09:34:51.705Z,7.78
2023-04-21T09:37:02.465Z,7.81
2023-04-21T09:41:11.566Z,7.85
2023-04-21T09:43:14.103Z,7.90
2023-04-21T09:45:32.812Z,7.95
2023-04-21T09:47:42.564Z,8.01
2023-04-21T09:49:46.151Z,8.06
2023-04-21T09:52:17.128Z,8.12
2023-04-21T09:56:25.433Z,8.22
2023-04-21T09:58:34.469Z,8.28
2023-04-21T10:00:39.763Z,8.34
2023-04-21T10:02:45.233Z,8.36
2023-04-21T10:04:48.280Z,8.46
2023-04-21T10:06:52.213Z,8.50
2023-04-21T10:08:58.023Z,8.50
2023-04-21T10:11:03.024Z,8.52
2023-04-21T10:13:05.778Z,8.54
2023-04-21T10:15:35.490Z,8.55
2023-04-21T10:17:38.379Z,8.65
2023-04-21T10:19:50.707Z,8.75
2023-04-21T10:21:56.069Z,8.80
2023-04-21T10:23:59.151Z,8.82
2023-04-21T10:26:07.741Z,8.86
2023-04-21T10:28:10.567Z,8.92
2023-04-21T10:30:20.790Z,9.01
2023-04-21T10:32:41.339Z,9.05
2023-04-21T10:34:44.956Z,9.05
2023-04-21T10:37:06.302Z,9.07
2023-04-21T10:39:09.003Z,9.12
2023-04-21T10:41:30.129Z,9.22
2023-04-21T10:43:45.172Z,9.25
2023-04-21T10:45:50.524Z,9.33
2023-04-21T10:47:54.840Z,9.33
2023-04-21T10:49:58.322Z,9.40
2023-04-21T10:52:05.486Z,9.43
2023-04-21T10:54:08.113Z,9.46
2023-04-21T10:56:10.881Z,9.56
2023-04-21T10:58:16.650Z,9.61
2023-04-21T11:00:22.369Z,9.62
2023-04-21T11:02:25.220Z,9.76
2023-04-21T11:04:29.777Z,9.76
2023-04-21T11:06:32.828Z,9.84
2023-04-21T11:08:37.134Z,9.86
2023-04-21T11:10:53.764Z,9.89
2023-04-21T11:12:58.544Z,9.91
2023-04-21T11:15:08.411Z,9.96
2023-04-21T11:17:13.274Z,9.99
2023-04-21T11:19:16.415Z,10.03
2023-04-21T11:21:21.881Z,10.11
2023-04-21T11:23:24.432Z,10.14
2023-04-21T11:25:27.497Z,10.19
2023-04-21T11:27:30.752Z,10.27
2023-04-21T11:29:34.258Z,10.35
2023-04-21T11:31:37.845Z,10.33
2023-04-21T11:33:40.584Z,10.38
2023-04-21T11:35:43.209Z,10.42
2023-04-21T11:37:47.120Z,10.44
2023-04-21T11:39:49.652Z,10.53
2023-04-21T11:41:53.004Z,10.53
2023-04-21T11:43:55.567Z,10.65
2023-04-21T11:46:12.480Z,10.68
2023-04-21T11:48:16.257Z,10.75
2023-04-21T11:50:32.157Z,10.81
2023-04-21T11:52:37.301Z,10.90
2023-04-21T11:54:44.199Z,10.91
2023-04-21T11:56:48.472Z,10.96
2023-04-21T11:58:52.601Z,11.00
2023-04-21T12:00:55.298Z,11.04
2023-04-21T12:02:58.470Z,11.23
2023-04-21T12:05:03.020Z,11.28
2023-04-21T12:07:05.952Z,11.38
2023-04-21T12:09:08.535Z,11.39
2023-04-21T12:11:12.428Z,11.41
2023-04-21T12:13:20.060Z,11.43
2023-04-21T12:15:23.704Z,11.54
2023-04-21T12:17:26.335Z,11.59
2023-04-21T12:19:37.240Z,11.66
2023-04-21T12:21:40.463Z,11.71
2023-04-21T12:23:44.639Z,11.75
2023-04-21T12:25:47.563Z,11.82
2023-04-21T12:27:52.460Z,11.87
2023-04-21T12:29:55.203Z,11.93
2023-04-21T12:31:57.842Z,12.07
2023-04-21T12:34:00.528Z,12.22
2023-04-21T12:36:03.508Z,12.28
2023-04-21T12:38:06.173Z,12.39
2023-04-21T12:40:09.723Z,12.54
2023-04-21T12:42:12.325Z,12.69
2023-04-21T12:44:16.325Z,12.83
2023-04-21T12:46:19.042Z,12.99
2023-04-21T12:48:21.640Z,13.14
2023-04-21T12:50:24.171Z,13.31
2023-04-21T12:52:27.060Z,13.49
2023-04-21T12:54:29.587Z,13.67
2023-04-21T12:56:32.281Z,13.86
2023-04-21T12:58:34.830Z,14.09
2023-04-21T13:00:38.737Z,14.30
2023-04-21T13:02:41.425Z,14.51
2023-04-21T13:04:44.261Z,14.69
2023-04-21T13:06:46.844Z,14.89
2023-04-21T13:08:49.488Z,15.10
2023-04-21T13:10:53.989Z,15.36
2023-04-21T13:12:57.642Z,15.55
2023-04-21T13:15:00.271Z,15.75
2023-04-21T13:17:04.219Z,15.99
2023-04-21T13:19:06.774Z,16.19
2023-04-21T13:21:09.323Z,16.41
2023-04-21T13:23:14.138Z,16.81
2023-04-21T13:25:17.739Z,16.93
2023-04-21T13:27:20.578Z,17.15
2023-04-21T13:29:23.129Z,17.40
2023-04-21T13:31:26.303Z,17.66
2023-04-21T13:33:30.512Z,17.92
2023-04-21T13:35:33.069Z,18.15
2023-04-21T13:37:35.776Z,18.39
2023-04-21T13:39:38.372Z,18.61
2023-04-21T13:41:40.911Z,18.84
2023-04-21T13:43:43.801Z,19.05
2023-04-21T13:45:48.082Z,19.24
2023-04-21T13:47:51.844Z,19.53
2023-04-21T13:49:58.628Z,19.72
2023-04-21T13:52:01.154Z,19.87
2023-04-21T13:54:03.800Z,20.09
2023-04-21T13:56:06.706Z,20.22
2023-04-21T13:58:09.816Z,20.38
2023-04-21T14:00:13.255Z,20.50
2023-04-21T14:02:16.239Z,20.55
2023-04-21T14:04:21.007Z,20.71
2023-04-21T14:06:25.082Z,20.79
2023-04-21T14:08:27.635Z,20.86
2023-04-21T14:10:30.180Z,21.00
2023-04-21T14:12:32.746Z,21.12
2023-04-21T14:14:38.802Z,21.17
2023-04-21T14:16:41.949Z,21.26
2023-04-21T14:18:46.417Z,21.33
2023-04-21T14:20:48.977Z,21.43
2023-04-21T14:22:52.844Z,21.62
2023-04-21T14:24:55.398Z,21.47
2023-04-21T14:26:57.937Z,21.08
2023-04-21T14:29:01.470Z,20.70
2023-04-21T14:31:04.329Z,20.31
2023-04-21T14:33:07.197Z,19.85
2023-04-21T14:35:10.391Z,19.44
2023-04-21T14:37:13.006Z,19.08
2023-04-21T14:39:16.925Z,18.82
2023-04-21T14:41:19.439Z,18.70
2023-04-21T14:43:22.035Z,18.69
2023-04-21T14:45:24.786Z,18.77
2023-04-21T14:47:27.499Z,18.92
2023-04-21T14:49:30.238Z,19.32
2023-04-21T14:51:32.899Z,19.59
2023-04-21T14:53:35.592Z,19.89
2023-04-21T14:55:41.666Z,19.99
2023-04-21T14:57:44.663Z,19.93
2023-04-21T14:59:47.221Z,19.79
2023-04-21T15:01:49.834Z,19.71
2023-04-21T15:03:52.681Z,19.49
2023-04-21T15:05:55.586Z,19.27
2023-04-21T15:07:58.124Z,19.18
2023-04-21T15:10:00.948Z,19.10
2023-04-21T15:12:05.609Z,19.12
2023-04-21T15:14:08.263Z,19.14
2023-04-21T15:16:10.843Z,19.29
2023-04-21T15:18:13.469Z,19.33
2023-04-21T15:20:16.068Z,19.45
2023-04-21T15:22:18.851Z,19.56
2023-04-21T15:24:21.410Z,19.71
2023-04-21T15:26:24.384Z,19.90
2023-04-21T15:28:28.316Z,20.02
2023-04-21T15:30:30.944Z,20.15
2023-04-21T15:32:33.554Z,20.37
2023-04-21T15:34:36.428Z,20.49
2023-04-21T15:36:38.966Z,20.37
2023-04-21T15:38:41.618Z,20.27
2023-04-21T15:40:59.059Z,20.11
2023-04-21T15:43:02.974Z,19.91
2023-04-21T15:45:08.323Z,19.79
2023-04-21T15:47:10.879Z,19.66
2023-04-21T15:49:13.462Z,19.58
2023-04-21T15:51:16.114Z,19.52
2023-04-21T15:53:20.086Z,19.37
2023-04-21T15:55:23.297Z,19.14
2023-04-21T15:57:28.264Z,19.10
2023-04-21T15:59:30.912Z,19.09
2023-04-21T16:01:34.967Z,19.06
2023-04-21T16:03:40.008Z,19.20
2023-04-21T16:05:43.269Z,19.32
2023-04-21T16:07:45.973Z,19.49
2023-04-21T16:09:48.551Z,19.66
2023-04-21T16:11:51.438Z,19.78
2023-04-21T16:13:54.267Z,19.71
2023-04-21T16:15:57.055Z,19.90
2023-04-21T16:18:02.249Z,19.83
2023-04-21T16:20:05.975Z,19.67
2023-04-21T16:22:09.373Z,19.53
2023-04-21T16:24:12.217Z,19.46
2023-04-21T16:26:14.887Z,19.25
2023-04-21T16:28:17.467Z,19.13
2023-04-21T16:30:20.076Z,18.93
2023-04-21T16:32:22.744Z,18.77
2023-04-21T16:34:26.750Z,18.69
2023-04-21T16:36:31.145Z,18.57
2023-04-21T16:38:33.795Z,18.39
2023-04-21T16:40:36.543Z,18.37
2023-04-21T16:42:39.310Z,18.18
2023-04-21T16:44:41.920Z,18.14
2023-04-21T16:46:44.522Z,18.02
2023-04-21T16:48:47.500Z,17.86
2023-04-21T16:50:53.742Z,17.79
2023-04-21T16:52:56.320Z,17.75
2023-04-21T16:54:59.156Z,17.65
2023-04-21T16:57:02.030Z,17.57
2023-04-21T16:59:04.772Z,17.52
2023-04-21T17:01:08.202Z,17.50
2023-04-21T17:03:10.922Z,17.45
2023-04-21T17:05:15.606Z,17.53
2023-04-21T17:07:19.602Z,17.52
2023-04-21T17:09:22.153Z,17.50
2023-04-21T17:11:24.692Z,17.42
2023-04-21T17:13:27.253Z,17.42
2023-04-21T17:15:29.830Z,17.39
2023-04-21T17:17:41.210Z,17.34
2023-04-21T17:19:43.980Z,17.26
2023-04-21T17:21:46.528Z,17.19
2023-04-21T17:23:51.114Z,17.10
2023-04-21T17:25:53.750Z,17.00
2023-04-21T17:27:56.611Z,17.14
2023-04-21T17:29:59.240Z,17.15
2023-04-21T17:32:01.870Z,17.12
2023-04-21T17:34:04.452Z,17.08
2023-04-21T17:36:08.066Z,17.12
2023-04-21T17:38:10.655Z,17.16
2023-04-21T17:40:15.272Z,17.00
2023-04-21T17:42:17.787Z,16.94
2023-04-21T17:44:20.746Z,16.93
2023-04-21T17:46:25.436Z,16.90
2023-04-21T17:48:28.278Z,16.89
2023-04-21T17:50:31.200Z,16.79
2023-04-21T17:52:33.706Z,16.75
2023-04-21T17:54:38.786Z,16.67
2023-04-21T17:56:43.048Z,16.59
2023-04-21T17:58:45.762Z,16.66
2023-04-21T18:00:48.470Z,16.55
2023-04-21T18:02:51.233Z,16.67
2023-04-21T18:04:54.126Z,16.49
2023-04-21T18:06:56.928Z,16.57
2023-04-21T18:08:59.528Z,16.40
2023-04-21T18:11:03.795Z,16.32
2023-04-21T18:13:07.830Z,16.26
2023-04-21T18:15:11.596Z,16.20
2023-04-21T18:17:16.014Z,16.21
2023-04-21T18:19:20.257Z,16.06
2023-04-21T18:21:22.857Z,16.03
2023-04-21T18:23:25.416Z,15.93
2023-04-21T18:27:36.889Z,15.79
2023-04-21T18:29:40.791Z,15.74
2023-04-21T18:31:43.447Z,15.74
2023-04-21T18:33:45.983Z,15.70
2023-04-21T18:35:48.521Z,15.63
2023-04-21T18:37:51.504Z,15.57
2023-04-21T18:39:54.192Z,15.53
2023-04-21T18:41:56.741Z,15.48
2023-04-21T18:43:59.317Z,15.49
2023-04-21T18:46:03.252Z,15.47
2023-04-21T18:48:06.402Z,15.46
2023-04-21T18:50:10.140Z,15.44
2023-04-21T18:52:13.102Z,15.40
2023-04-21T18:54:16.233Z,15.38
2023-04-21T18:56:18.797Z,15.33
2023-04-21T18:58:21.635Z,15.27
2023-04-21T19:00:24.190Z,15.23
2023-04-21T19:02:30.050Z,15.20
2023-04-21T19:04:32.914Z,15.13
2023-04-21T19:06:35.662Z,15.13
2023-04-21T19:08:42.540Z,15.12
2023-04-21T19:10:46.039Z,15.11
2023-04-21T19:12:48.702Z,15.07
2023-04-21T19:14:52.415Z,15.03
2023-04-21T19:16:56.263Z,15.01
2023-04-21T19:19:00.953Z,15.00
2023-04-21T19:21:04.439Z,14.98
2023-04-21T19:23:07.040Z,14.94
2023-04-21T19:25:11.973Z,14.89
2023-04-21T19:27:15.199Z,14.88
2023-04-21T19:29:17.794Z,14.84
2023-04-21T19:31:21.526Z,14.83
2023-04-21T19:33:24.267Z,14.81
2023-04-21T19:35:28.544Z,14.97
2023-04-21T19:37:34.452Z,14.89
2023-04-21T19:39:37.754Z,14.81
2023-04-21T19:41:40.292Z,14.97
2023-04-21T19:43:42.842Z,14.96
2023-04-21T19:45:46.119Z,14.87
2023-04-21T19:47:48.750Z,14.69
2023-04-21T19:49:51.422Z,14.60
2023-04-21T19:51:56.016Z,14.64
2023-04-21T19:54:07.892Z,14.69
2023-04-21T19:56:14.270Z,14.64
2023-04-21T19:58:25.201Z,14.73
2023-04-21T20:00:39.505Z,14.60
2023-04-21T20:02:42.380Z,14.48
2023-04-21T20:04:45.442Z,14.43
2023-04-21T20:06:48.128Z,14.39
2023-04-21T20:08:52.189Z,14.41
2023-04-21T20:10:54.723Z,14.33
2023-04-21T20:12:57.278Z,14.27
2023-04-21T20:15:00.180Z,14.26
2023-04-21T20:17:02.844Z,14.25
2023-04-21T20:19:06.195Z,14.23
2023-04-21T20:21:08.712Z,14.22
2023-04-21T20:23:12.188Z,14.21
2023-04-21T20:25:16.426Z,14.21
2023-04-21T20:27:19.478Z,14.19
2023-04-21T20:29:22.202Z,14.16
2023-04-21T20:31:25.474Z,14.22
2023-04-21T20:33:28.326Z,14.23
2023-04-21T20:35:33.390Z,14.15
2023-04-21T20:37:35.997Z,14.13
2023-04-21T20:39:39.366Z,14.09
2023-04-21T20:41:45.624Z,14.06
2023-04-21T20:43:48.692Z,14.06
2023-04-21T20:45:51.308Z,14.07
2023-04-21T20:47:53.961Z,14.14
2023-04-21T20:49:57.497Z,14.31
2023-04-21T20:52:01.315Z,14.17
2023-04-21T20:54:03.924Z,14.14
2023-04-21T20:56:06.719Z,14.32
2023-04-21T20:58:10.661Z,14.12
2023-04-21T21:00:14.181Z,14.03
2023-04-21T21:02:16.797Z,14.09
2023-04-21T21:04:19.612Z,14.04
2023-04-21T21:06:22.341Z,13.97
2023-04-21T21:08:24.969Z,13.92
2023-04-21T21:10:28.119Z,13.90
2023-04-21T21:12:30.642Z,13.91
2023-04-21T21:14:34.583Z,13.90
2023-04-21T21:16:37.485Z,13.90
2023-04-21T21:18:40.053Z,13.90
2023-04-21T21:20:42.850Z,13.89
2023-04-21T21:22:45.385Z,13.88
2023-04-21T21:24:50.295Z,13.87
2023-04-21T21:26:52.934Z,13.89
2023-04-21T21:28:55.513Z,13.88
2023-04-21T21:30:59.410Z,13.89
2023-04-21T21:33:02.003Z,13.90
2023-04-21T21:35:05.020Z,13.91
2023-04-21T21:37:07.586Z,13.95
2023-04-21T21:39:11.442Z,14.14
2023-04-21T21:41:14.678Z,14.08
2023-04-21T21:43:17.273Z,14.07
2023-04-21T21:45:19.791Z,13.89
2023-04-21T21:47:23.846Z,13.81
2023-04-21T21:49:26.675Z,13.89
2023-04-21T21:51:29.774Z,14.01
2023-04-21T21:53:32.494Z,14.00
2023-04-21T21:55:35.137Z,13.85
2023-04-21T21:57:37.806Z,13.93
2023-04-21T21:59:40.647Z,13.83
2023-04-21T22:01:43.396Z,13.77
2023-04-21T22:03:48.040Z,13.74
2023-04-21T22:05:50.643Z,13.80
2023-04-21T22:07:53.747Z,13.74
2023-04-21T22:09:59.610Z,13.69
2023-04-21T22:12:02.169Z,13.68
2023-04-21T22:14:14.728Z,13.67
2023-04-21T22:16:24.964Z,13.70
2023-04-21T22:18:27.854Z,13.71
2023-04-21T22:20:32.138Z,13.70
2023-04-21T22:22:34.851Z,13.68
2023-04-21T22:24:37.389Z,13.67
2023-04-21T22:26:39.936Z,13.63
2023-04-21T22:28:43.488Z,13.63
2023-04-21T22:30:46.129Z,13.62
2023-04-21T22:32:48.794Z,13.64
2023-04-21T22:34:51.359Z,13.58
2023-04-21T22:36:55.541Z,13.59
2023-04-21T22:38:58.059Z,13.70
2023-04-21T22:41:00.682Z,13.70
2023-04-21T22:43:03.700Z,13.55
2023-04-21T22:45:07.084Z,13.51
2023-04-21T22:47:10.702Z,13.45
2023-04-21T22:49:14.204Z,13.41
2023-04-21T22:51:18.471Z,13.43
2023-04-21T22:53:22.374Z,13.38
2023-04-21T22:55:25.539Z,13.35
2023-04-21T22:57:28.359Z,13.34
2023-04-21T22:59:31.263Z,13.34
2023-04-21T23:01:34.435Z,13.38
2023-04-21T23:03:37.080Z,13.31
2023-04-21T23:05:39.929Z,13.35
2023-04-21T23:07:42.481Z,13.29
2023-04-21T23:09:46.358Z,13.26
2023-04-21T23:11:48.962Z,13.27
2023-04-21T23:13:51.514Z,13.31
2023-04-21T23:15:54.043Z,13.23
2023-04-21T23:17:56.654Z,13.19
2023-04-21T23:20:00.027Z,13.18
2023-04-21T23:22:02.576Z,13.14
2023-04-21T23:24:05.443Z,13.14
2023-04-21T23:26:09.295Z,13.12
2023-04-21T23:28:11.951Z,13.13
2023-04-21T23:30:15.131Z,13.13
2023-04-21T23:32:17.810Z,13.13
2023-04-21T23:34:20.413Z,13.13
2023-04-21T23:36:22.916Z,13.14
2023-04-21T23:38:25.606Z,13.13
2023-04-21T23:40:28.270Z,13.11
2023-04-21T23:42:32.223Z,13.09
2023-04-21T23:44:37.204Z,13.02
2023-04-21T23:46:39.811Z,13.04
2023-04-21T23:48:42.414Z,13.04
2023-04-21T23:50:45.043Z,13.05
2023-04-21T23:52:48.957Z,13.07
2023-04-21T23:54:51.669Z,13.06
2023-04-21T23:56:54.210Z,13.09
2023-04-21T23:59:00.251Z,13.07
